GIA224 VTSP-WIMM
Flight info
| Callsign | GIA224 |
|---|---|
| Flight time | N/A |
| Altitude | 35000 |
| Route | REBED1B REBED B579 VPL Y509 ANGUN G468 GOTLA |
| Aircraft | B738/M-SDE2E3FGHIRWXY/LB1 |
Departure
| Time | 2026-05-05 17:07 |
|---|---|
| Airport | Phuket International Airport (VTSP) |
Arrival
| Time | N/A |
|---|---|
| Airport | Kualanamu International Airport (WIMM) |
| Time | Latitude | Longitude | Altitude | Speed | Heading |
|---|---|---|---|---|---|
| 2026-05-05 16:48 | 8.10963 | 98.30582 | 27 ft | 0 kts | 174° |
| 2026-05-05 16:59 | 8.10979 | 98.30580 | 27 ft | 2 kts | 175° |
| 2026-05-05 16:59 | 8.10996 | 98.30579 | 27 ft | 2 kts | 174° |
| 2026-05-05 16:59 | 8.11012 | 98.30577 | 27 ft | 2 kts | 173° |
| 2026-05-05 16:59 | 8.11028 | 98.30575 | 27 ft | 2 kts | 170° |
| 2026-05-05 17:00 | 8.11044 | 98.30571 | 27 ft | 2 kts | 154° |
| 2026-05-05 17:00 | 8.11053 | 98.30561 | 27 ft | 1 kts | 88° |
| 2026-05-05 17:00 | 8.11053 | 98.30559 | 27 ft | 0 kts | 85° |
| 2026-05-05 17:01 | 8.11054 | 98.30571 | 27 ft | 7 kts | 86° |
| 2026-05-05 17:02 | 8.11061 | 98.30654 | 27 ft | 15 kts | 84° |
| 2026-05-05 17:02 | 8.11072 | 98.30761 | 28 ft | 15 kts | 84° |
| 2026-05-05 17:02 | 8.11082 | 98.30864 | 28 ft | 14 kts | 84° |
| 2026-05-05 17:02 | 8.11113 | 98.30978 | 29 ft | 22 kts | 68° |
| 2026-05-05 17:03 | 8.11136 | 98.31157 | 29 ft | 29 kts | 84° |
| 2026-05-05 17:03 | 8.11155 | 98.31354 | 32 ft | 27 kts | 84° |
| 2026-05-05 17:03 | 8.11172 | 98.31540 | 39 ft | 28 kts | 83° |
| 2026-05-05 17:03 | 8.11191 | 98.31752 | 46 ft | 32 kts | 85° |
| 2026-05-05 17:04 | 8.11212 | 98.31967 | 57 ft | 29 kts | 84° |
| 2026-05-05 17:04 | 8.11230 | 98.32166 | 66 ft | 28 kts | 84° |
| 2026-05-05 17:04 | 8.11248 | 98.32351 | 65 ft | 26 kts | 85° |
| 2026-05-05 17:04 | 8.11266 | 98.32526 | 83 ft | 24 kts | 84° |
| 2026-05-05 17:05 | 8.11283 | 98.32688 | 82 ft | 23 kts | 88° |
| 2026-05-05 17:05 | 8.11294 | 98.32845 | 88 ft | 23 kts | 83° |
| 2026-05-05 17:05 | 8.11327 | 98.33000 | 91 ft | 22 kts | 44° |
| 2026-05-05 17:05 | 8.11440 | 98.32972 | 90 ft | 13 kts | 289° |
| 2026-05-05 17:06 | 8.11441 | 98.32950 | 89 ft | 0 kts | 266° |
| 2026-05-05 17:06 | 8.11441 | 98.32945 | 89 ft | 7 kts | 266° |
| 2026-05-05 17:06 | 8.11412 | 98.32631 | 81 ft | 85 kts | 264° |
| 2026-05-05 17:06 | 8.11333 | 98.31792 | 50 ft | 153 kts | 264° |
| 2026-05-05 17:07 | 8.11223 | 98.30594 | 455 ft | 174 kts | 266° |
| 2026-05-05 17:07 | 8.11110 | 98.29423 | 1400 ft | 167 kts | 264° |
| 2026-05-05 17:07 | 8.10987 | 98.28191 | 1869 ft | 192 kts | 264° |
| 2026-05-05 17:07 | 8.10844 | 98.26739 | 2133 ft | 221 kts | 264° |
| 2026-05-05 17:08 | 8.10685 | 98.25109 | 2407 ft | 243 kts | 264° |
| 2026-05-05 17:08 | 8.10381 | 98.23392 | 2743 ft | 262 kts | 244° |
| 2026-05-05 17:08 | 8.09140 | 98.22038 | 3353 ft | 269 kts | 207° |
| 2026-05-05 17:08 | 8.07350 | 98.21539 | 4148 ft | 269 kts | 180° |
| 2026-05-05 17:09 | 8.05474 | 98.21653 | 4973 ft | 271 kts | 170° |
| 2026-05-05 17:09 | 8.03598 | 98.21931 | 5768 ft | 274 kts | 168° |
| 2026-05-05 17:09 | 8.01706 | 98.22230 | 6541 ft | 277 kts | 168° |
| 2026-05-05 17:09 | 7.99792 | 98.22521 | 7276 ft | 280 kts | 169° |
| 2026-05-05 17:10 | 7.95065 | 98.23176 | 9085 ft | 289 kts | 170° |
| 2026-05-05 17:10 | 7.93060 | 98.23442 | 9835 ft | 292 kts | 170° |
| 2026-05-05 17:11 | 7.91026 | 98.23717 | 10424 ft | 300 kts | 167° |
| 2026-05-05 17:11 | 7.89089 | 98.24491 | 10990 ft | 303 kts | 142° |
| 2026-05-05 17:11 | 7.87652 | 98.26020 | 11692 ft | 302 kts | 119° |
| 2026-05-05 17:11 | 7.86756 | 98.27932 | 12432 ft | 304 kts | 112° |
| 2026-05-05 17:12 | 7.85950 | 98.29919 | 13137 ft | 308 kts | 111° |
| 2026-05-05 17:12 | 7.85159 | 98.31910 | 13834 ft | 312 kts | 111° |
| 2026-05-05 17:12 | 7.84343 | 98.33953 | 14512 ft | 316 kts | 111° |
| 2026-05-05 17:12 | 7.83511 | 98.36013 | 15187 ft | 319 kts | 111° |
| 2026-05-05 17:13 | 7.82661 | 98.38100 | 15870 ft | 323 kts | 111° |
| 2026-05-05 17:13 | 7.81799 | 98.40204 | 16544 ft | 327 kts | 111° |
| 2026-05-05 17:13 | 7.80922 | 98.42338 | 17203 ft | 331 kts | 111° |
| 2026-05-05 17:13 | 7.80035 | 98.44493 | 17871 ft | 335 kts | 112° |
| 2026-05-05 17:14 | 7.79138 | 98.46673 | 18464 ft | 339 kts | 112° |
| 2026-05-05 17:14 | 7.78230 | 98.48877 | 19025 ft | 342 kts | 112° |
| 2026-05-05 17:14 | 7.77312 | 98.51101 | 19608 ft | 345 kts | 112° |
| 2026-05-05 17:14 | 7.76383 | 98.53341 | 20171 ft | 348 kts | 112° |
| 2026-05-05 17:15 | 7.75445 | 98.55602 | 20737 ft | 351 kts | 112° |
| 2026-05-05 17:15 | 7.74497 | 98.57886 | 21292 ft | 355 kts | 112° |
| 2026-05-05 17:15 | 7.73541 | 98.60190 | 21841 ft | 358 kts | 112° |
| 2026-05-05 17:15 | 7.72441 | 98.62447 | 22368 ft | 362 kts | 124° |
| 2026-05-05 17:16 | 7.70706 | 98.64305 | 22896 ft | 367 kts | 138° |
| 2026-05-05 17:16 | 7.68731 | 98.65947 | 23443 ft | 370 kts | 140° |
| 2026-05-05 17:16 | 7.66708 | 98.67567 | 23857 ft | 373 kts | 140° |
| 2026-05-05 17:16 | 7.64665 | 98.69198 | 24282 ft | 376 kts | 140° |
| 2026-05-05 17:17 | 7.62614 | 98.70851 | 24719 ft | 379 kts | 140° |
| 2026-05-05 17:17 | 7.60554 | 98.72525 | 25157 ft | 382 kts | 140° |
| 2026-05-05 17:17 | 7.58486 | 98.74216 | 25581 ft | 384 kts | 140° |
| 2026-05-05 17:17 | 7.56403 | 98.75925 | 26005 ft | 387 kts | 140° |
| 2026-05-05 17:18 | 7.54306 | 98.77648 | 26425 ft | 390 kts | 140° |
| 2026-05-05 17:18 | 7.52198 | 98.79382 | 26848 ft | 393 kts | 140° |
| 2026-05-05 17:18 | 7.50072 | 98.81129 | 27252 ft | 395 kts | 140° |
| 2026-05-05 17:18 | 7.47958 | 98.82865 | 27647 ft | 398 kts | 140° |
| 2026-05-05 17:19 | 7.45777 | 98.84655 | 28048 ft | 401 kts | 140° |
| 2026-05-05 17:19 | 7.43636 | 98.86412 | 28427 ft | 404 kts | 140° |
| 2026-05-05 17:19 | 7.41449 | 98.88206 | 28817 ft | 407 kts | 140° |
| 2026-05-05 17:19 | 7.39250 | 98.90010 | 29199 ft | 409 kts | 140° |
| 2026-05-05 17:20 | 7.37035 | 98.91826 | 29575 ft | 412 kts | 140° |
| 2026-05-05 17:20 | 7.34809 | 98.93653 | 29936 ft | 414 kts | 140° |
| 2026-05-05 17:20 | 7.32565 | 98.95493 | 30261 ft | 417 kts | 140° |
| 2026-05-05 17:20 | 7.30317 | 98.97337 | 30603 ft | 418 kts | 140° |
| 2026-05-05 17:21 | 7.28058 | 98.99189 | 30937 ft | 419 kts | 140° |
| 2026-05-05 17:21 | 7.25792 | 99.01048 | 31235 ft | 422 kts | 140° |
| 2026-05-05 17:21 | 7.23512 | 99.02918 | 31524 ft | 424 kts | 140° |
| 2026-05-05 17:22 | 7.18914 | 99.06687 | 32111 ft | 428 kts | 140° |
| 2026-05-05 17:22 | 7.16598 | 99.08585 | 32398 ft | 430 kts | 140° |
| 2026-05-05 17:22 | 7.14270 | 99.10493 | 32678 ft | 433 kts | 140° |
| 2026-05-05 17:22 | 7.11931 | 99.12409 | 32892 ft | 435 kts | 140° |
| 2026-05-05 17:23 | 7.09559 | 99.14353 | 32876 ft | 442 kts | 140° |
| 2026-05-05 17:23 | 7.04729 | 99.18310 | 32893 ft | 453 kts | 140° |
| 2026-05-05 17:24 | 6.99993 | 99.22189 | 32889 ft | 462 kts | 140° |
| 2026-05-05 17:24 | 6.94948 | 99.26318 | 32891 ft | 471 kts | 140° |
| 2026-05-05 17:25 | 6.89830 | 99.30507 | 32884 ft | 478 kts | 140° |
| 2026-05-05 17:25 | 6.84647 | 99.34747 | 32879 ft | 483 kts | 140° |
| 2026-05-05 17:26 | 6.79453 | 99.38996 | 32876 ft | 485 kts | 140° |
| 2026-05-05 17:26 | 6.74197 | 99.43293 | 32876 ft | 487 kts | 140° |
| 2026-05-05 17:27 | 6.68935 | 99.47595 | 32870 ft | 488 kts | 140° |
| 2026-05-05 17:27 | 6.63672 | 99.51897 | 32875 ft | 488 kts | 140° |
| 2026-05-05 17:28 | 6.58406 | 99.56199 | 32880 ft | 487 kts | 140° |
| 2026-05-05 17:28 | 6.53146 | 99.60497 | 32877 ft | 487 kts | 140° |
| 2026-05-05 17:29 | 6.47894 | 99.64786 | 32876 ft | 486 kts | 140° |
| 2026-05-05 17:29 | 6.42571 | 99.68988 | 32890 ft | 486 kts | 142° |
| 2026-05-05 17:30 | 6.37162 | 99.73066 | 32882 ft | 486 kts | 146° |
| 2026-05-05 17:30 | 6.31150 | 99.75992 | 32888 ft | 487 kts | 161° |
| 2026-05-05 17:31 | 6.24659 | 99.77988 | 32875 ft | 487 kts | 162° |
| 2026-05-05 17:31 | 6.18159 | 99.79942 | 32882 ft | 487 kts | 162° |
| 2026-05-05 17:32 | 6.11680 | 99.81943 | 32884 ft | 487 kts | 162° |
| 2026-05-05 17:32 | 6.05253 | 99.83960 | 32873 ft | 487 kts | 162° |
| 2026-05-05 17:33 | 5.98788 | 99.85994 | 32885 ft | 487 kts | 162° |
| 2026-05-05 17:33 | 5.92317 | 99.88028 | 32878 ft | 487 kts | 162° |
| 2026-05-05 17:34 | 5.85844 | 99.90060 | 32891 ft | 488 kts | 162° |
| 2026-05-05 17:34 | 5.79366 | 99.92092 | 32880 ft | 488 kts | 162° |
| 2026-05-05 17:35 | 5.72893 | 99.94122 | 32879 ft | 487 kts | 162° |
| 2026-05-05 17:35 | 5.66396 | 99.96038 | 32865 ft | 487 kts | 169° |
| 2026-05-05 17:35 | 5.63014 | 99.96274 | 32879 ft | 488 kts | 182° |
| 2026-05-05 17:36 | 5.59737 | 99.95853 | 32870 ft | 489 kts | 192° |
| 2026-05-05 17:36 | 5.53334 | 99.93557 | 32874 ft | 490 kts | 201° |
| 2026-05-05 17:37 | 5.47013 | 99.90991 | 32872 ft | 490 kts | 201° |
| 2026-05-05 17:37 | 5.40675 | 99.88472 | 32871 ft | 490 kts | 201° |
| 2026-05-05 17:38 | 5.34317 | 99.85989 | 32876 ft | 490 kts | 200° |
| 2026-05-05 17:38 | 5.27956 | 99.83515 | 32875 ft | 490 kts | 200° |
| 2026-05-05 17:39 | 5.21587 | 99.81037 | 32877 ft | 491 kts | 200° |